Wolf Creek, OR

4:52 PM PDT on August 03, 2015 (GMT -0700)
Sexton Summit | | Change Station
CLOSE
Current Station
Airport
Location: Sexton Summit,
Elevation: 3839 ft
Nearby Weather Stations

Elev 3839 ft 42.60 °N, 123.36 °W | Updated 34 minutes ago

Haze
Haze
78 °F
Feels Like 78 °F
N
6
Wind Variable Wind from Variable

Today
High -- | Low -- °F
--% Chance of Precip.
Yesterday
High -- | Low -- °F
Precip. -- in
6:07 AM 8:31 PM
Waning Gibbous, 83% visible
Pressure 30.02 in
Visibility 1.5 miles
Clouds Overcast 2300 ft
Dew Point 58 °F
Humidity 50%
Rainfall 0.00 in
Snow Depth Not available.
UV 2 out of 12
Pollen 4.10 out of 12
Air Quality Not available.
Flu Activity Not available.
SPECI KSXT 032318Z AUTO VRB05KT 1 1/2SM HZ OVC023 26/14 A3002 RMK AO2 T02560144

More Conditions Fewer Conditions

Pressure 30.02 in
Visibility 1.5 miles
Clouds Overcast 2300 ft
Dew Point 58 °F
Humidity 50%
Rainfall 0.00 in
Snow Depth Not available.
UV 2 out of 12
Pollen 4.10 out of 12
Air Quality Not available.
Flu Activity Not available.
SPECI KSXT 032318Z AUTO VRB05KT 1 1/2SM HZ OVC023 26/14 A3002 RMK AO2 T02560144

More Conditions Fewer Conditions

10-Day Weather Forecast

×

Almanac

Astronomy

Aug. 03, 2015 Rise Set
Actual Time
Civil Twilight
Nautical Twilight
Astronomical Twilight
Moon
Length of Visible Light
Length of Day
Tomorrow will be .
, % of the Moon is Illuminated

Today's Extremes

State Highs State Lows

Community

WunderPhotos

Upload Photos

1,843,791 photos uploaded!

WunderBlogs® & News

Nearby

Air Quality

  Air Quality AQ Index Pollutant
Not available.

Snow Depth

Station Depth Elevation

Earthquake Activity

City Distance Mag. Time & Date
Minimum magnitude displayed is 2.5.

Coastal Water Temperatures

Place Temperature

Stations

Nearby Weather Stations

Station Location Temp. Windchill Dew Point Humidity Wind Precip. Elev Updated Type